createdAt,value
2023-04-30T00:00:44.248Z,8.07
2023-04-30T00:03:12.744Z,10.57
2023-04-30T00:05:41.419Z,9.07
2023-04-30T00:08:09.597Z,9.30
2023-04-30T00:10:37.940Z,8.97
2023-04-30T00:13:06.107Z,8.33
2023-04-30T00:15:34.238Z,7.90
2023-04-30T00:18:02.986Z,6.93
2023-04-30T00:20:31.416Z,7.00
2023-04-30T00:22:59.984Z,6.70
2023-04-30T00:25:28.608Z,6.30
2023-04-30T00:27:57.090Z,6.20
2023-04-30T00:30:25.353Z,6.63
2023-04-30T00:32:54.063Z,6.30
2023-04-30T00:35:22.597Z,6.63
2023-04-30T00:37:51.115Z,5.57
2023-04-30T00:40:19.277Z,11.03
2023-04-30T00:42:48.723Z,6.87
2023-04-30T00:45:21.609Z,7.07
2023-04-30T00:47:50.462Z,5.40
2023-04-30T00:50:18.833Z,6.40
2023-04-30T00:52:47.444Z,6.87
2023-04-30T00:55:16.014Z,6.87
2023-04-30T00:57:44.533Z,4.63
2023-04-30T01:00:14.073Z,4.00
2023-04-30T01:02:42.691Z,7.80
2023-04-30T01:05:11.309Z,4.50
2023-04-30T01:07:44.929Z,8.27
2023-04-30T01:10:17.300Z,6.27
2023-04-30T01:13:00.514Z,5.97
2023-04-30T01:15:53.561Z,5.60
2023-04-30T01:18:31.821Z,4.63
2023-04-30T01:21:10.631Z,6.40
2023-04-30T01:24:26.591Z,6.63
2023-04-30T01:27:11.790Z,4.90
2023-04-30T01:29:43.365Z,3.87
2023-04-30T01:32:14.616Z,5.33
2023-04-30T01:34:43.112Z,4.30
2023-04-30T01:37:16.921Z,4.37
2023-04-30T01:40:26.252Z,8.07
2023-04-30T01:43:19.162Z,5.27
2023-04-30T01:46:34.472Z,3.80
2023-04-30T01:49:45.270Z,5.63
2023-04-30T01:52:42.110Z,4.17
2023-04-30T01:55:16.283Z,5.13
2023-04-30T01:57:59.646Z,7.80
2023-04-30T02:00:30.676Z,7.90
2023-04-30T02:03:00.003Z,5.00
2023-04-30T02:05:28.947Z,6.47
2023-04-30T02:07:57.624Z,4.13
2023-04-30T02:10:29.469Z,4.43
2023-04-30T02:12:57.816Z,6.33
2023-04-30T02:15:26.463Z,7.40
2023-04-30T02:17:54.672Z,5.33
2023-04-30T02:20:23.228Z,6.83
2023-04-30T02:22:52.265Z,4.37
2023-04-30T02:25:20.940Z,7.67
2023-04-30T02:27:50.698Z,4.43
2023-04-30T02:30:19.862Z,5.47
2023-04-30T02:32:48.143Z,6.63
2023-04-30T02:35:16.784Z,7.07
2023-04-30T02:37:45.233Z,7.90
2023-04-30T02:40:13.880Z,4.43
2023-04-30T02:42:42.535Z,7.33
2023-04-30T02:45:11.097Z,7.73
2023-04-30T02:47:42.324Z,10.17
2023-04-30T02:50:11.144Z,6.00
2023-04-30T02:52:39.829Z,5.13
2023-04-30T02:55:09.028Z,8.67
2023-04-30T02:57:37.546Z,5.77
2023-04-30T03:00:07.227Z,8.70
2023-04-30T03:02:35.873Z,10.47
2023-04-30T03:05:04.831Z,9.77
2023-04-30T03:07:33.045Z,5.40
2023-04-30T03:10:01.180Z,7.70
2023-04-30T03:12:29.415Z,7.67
2023-04-30T03:14:57.649Z,8.73
2023-04-30T03:17:25.981Z,5.27
2023-04-30T03:19:54.475Z,8.30
2023-04-30T03:22:25.481Z,7.83
2023-04-30T03:24:54.031Z,5.90
2023-04-30T03:27:22.816Z,6.03
2023-04-30T03:29:51.884Z,5.73
2023-04-30T03:32:20.070Z,6.67
2023-04-30T03:34:48.476Z,4.53
2023-04-30T03:37:16.586Z,6.00
2023-04-30T03:39:45.267Z,7.67
2023-04-30T03:42:13.766Z,10.23
2023-04-30T03:44:42.319Z,5.13
2023-04-30T03:47:10.884Z,7.03
2023-04-30T03:49:39.463Z,8.30
2023-04-30T03:52:08.132Z,6.70
2023-04-30T03:54:36.869Z,7.53
2023-04-30T03:57:07.984Z,10.60
2023-04-30T03:59:36.341Z,7.27
2023-04-30T04:02:05.013Z,9.87
2023-04-30T04:04:33.705Z,6.70
2023-04-30T04:07:03.319Z,9.13
2023-04-30T04:09:31.911Z,7.03
2023-04-30T04:12:02.259Z,9.57
2023-04-30T04:14:30.969Z,6.27
2023-04-30T04:17:00.166Z,7.50
2023-04-30T04:19:29.026Z,7.27
2023-04-30T04:21:57.687Z,6.40
2023-04-30T04:24:29.468Z,7.13
2023-04-30T04:26:58.274Z,8.23
2023-04-30T04:29:26.941Z,8.57
2023-04-30T04:31:55.730Z,7.20
2023-04-30T04:34:24.014Z,12.10
2023-04-30T04:36:52.962Z,7.67
2023-04-30T04:39:21.641Z,8.57
2023-04-30T04:41:49.789Z,5.27
2023-04-30T04:44:18.535Z,7.67
2023-04-30T04:46:47.149Z,6.77
2023-04-30T04:49:15.736Z,6.47
2023-04-30T04:51:44.202Z,5.37
2023-04-30T04:54:12.311Z,5.47
2023-04-30T04:56:40.841Z,8.07
2023-04-30T04:59:09.627Z,6.90
2023-04-30T05:01:37.906Z,9.63
2023-04-30T05:04:06.614Z,8.97
2023-04-30T05:06:34.879Z,4.53
2023-04-30T05:09:05.366Z,7.40
2023-04-30T05:11:33.416Z,8.27
2023-04-30T05:14:01.598Z,8.83
2023-04-30T05:16:30.182Z,4.73
2023-04-30T05:18:58.414Z,8.13
2023-04-30T05:21:29.665Z,9.33
2023-04-30T05:23:57.909Z,8.77
2023-04-30T05:26:26.514Z,7.67
2023-04-30T05:28:54.619Z,8.53
2023-04-30T05:31:23.335Z,6.80
2023-04-30T05:33:51.980Z,11.03
2023-04-30T05:36:20.485Z,7.30
2023-04-30T05:38:48.986Z,8.27
2023-04-30T05:41:17.153Z,7.63
2023-04-30T05:43:45.865Z,13.73
2023-04-30T05:46:14.416Z,7.20
2023-04-30T05:48:42.714Z,6.07
2023-04-30T05:51:11.087Z,5.17
2023-04-30T05:53:39.421Z,7.07
2023-04-30T05:56:08.876Z,7.63
2023-04-30T05:58:37.503Z,8.40
2023-04-30T06:01:05.931Z,6.23
2023-04-30T06:03:34.400Z,5.93
2023-04-30T06:06:02.925Z,6.03
2023-04-30T06:08:31.104Z,6.67
2023-04-30T06:10:59.656Z,4.87
2023-04-30T06:13:28.209Z,6.70
2023-04-30T06:15:56.776Z,7.90
2023-04-30T06:18:25.238Z,6.57
2023-04-30T06:20:53.705Z,6.90
2023-04-30T06:23:22.414Z,4.40
2023-04-30T06:25:51.056Z,5.20
2023-04-30T06:28:19.561Z,10.37
2023-04-30T06:30:48.503Z,4.17
2023-04-30T06:33:17.342Z,4.83
2023-04-30T06:35:46.014Z,4.27
2023-04-30T06:38:17.908Z,6.50
2023-04-30T06:40:46.410Z,5.20
2023-04-30T06:43:14.527Z,6.10
2023-04-30T06:45:42.997Z,8.10
2023-04-30T06:48:11.599Z,6.77
2023-04-30T06:50:44.967Z,5.17
2023-04-30T06:53:14.403Z,7.20
2023-04-30T06:55:43.646Z,5.33
2023-04-30T06:58:12.392Z,8.30
2023-04-30T07:00:40.834Z,8.17
2023-04-30T07:03:09.416Z,6.10
2023-04-30T07:05:38.208Z,5.53
2023-04-30T07:08:07.992Z,10.77
2023-04-30T07:10:36.795Z,5.27
2023-04-30T07:13:05.447Z,6.37
2023-04-30T07:15:34.071Z,8.50
2023-04-30T07:18:04.024Z,8.43
2023-04-30T07:20:32.589Z,5.50
2023-04-30T07:23:01.123Z,7.10
2023-04-30T07:25:29.845Z,5.70
2023-04-30T07:27:58.359Z,6.60
2023-04-30T07:30:27.020Z,7.07
2023-04-30T07:32:55.641Z,7.83
2023-04-30T07:35:24.258Z,5.03
2023-04-30T07:37:52.713Z,5.00
2023-04-30T07:40:32.674Z,5.43
2023-04-30T07:43:05.112Z,3.73
2023-04-30T07:45:34.062Z,7.27
2023-04-30T07:48:03.090Z,8.07
2023-04-30T07:50:34.085Z,7.83
2023-04-30T07:53:03.362Z,5.77
2023-04-30T07:55:31.903Z,7.97
2023-04-30T07:58:02.502Z,6.30
2023-04-30T08:00:31.154Z,7.07
2023-04-30T08:03:01.004Z,7.90
2023-04-30T08:05:29.777Z,8.67
2023-04-30T08:07:57.831Z,11.47
2023-04-30T08:10:26.589Z,12.37
2023-04-30T08:12:55.119Z,8.00
2023-04-30T08:15:23.918Z,7.17
2023-04-30T08:17:53.063Z,6.20
2023-04-30T08:20:23.643Z,7.07
2023-04-30T08:22:52.504Z,4.53
2023-04-30T08:25:20.825Z,3.73
2023-04-30T08:27:49.324Z,8.73
2023-04-30T08:30:17.898Z,6.50
2023-04-30T08:32:46.835Z,5.70
2023-04-30T08:35:16.979Z,3.83
2023-04-30T08:37:45.493Z,3.83
2023-04-30T08:40:15.389Z,6.43
2023-04-30T08:42:50.756Z,7.10
2023-04-30T08:45:20.552Z,6.30
2023-04-30T08:47:50.460Z,5.13
2023-04-30T08:50:19.381Z,5.00
2023-04-30T08:52:47.928Z,5.33
2023-04-30T08:55:16.561Z,7.43
2023-04-30T08:57:44.838Z,5.80
2023-04-30T09:00:14.253Z,5.07
2023-04-30T09:02:44.569Z,3.90
2023-04-30T09:05:15.972Z,5.63
2023-04-30T09:10:23.912Z,3.87
2023-04-30T09:13:12.182Z,4.97
2023-04-30T09:15:43.421Z,14.97
2023-04-30T09:18:18.680Z,3.00
2023-04-30T09:21:01.239Z,6.00
2023-04-30T09:23:30.161Z,4.47
2023-04-30T09:25:58.665Z,4.63
2023-04-30T09:28:29.086Z,5.07
2023-04-30T09:31:00.437Z,5.90
2023-04-30T09:33:30.237Z,3.83
2023-04-30T09:35:59.110Z,7.30
2023-04-30T09:38:32.812Z,6.23
2023-04-30T09:41:02.853Z,4.57
2023-04-30T09:43:32.068Z,4.00
2023-04-30T09:46:02.437Z,5.60
2023-04-30T09:48:31.670Z,5.60
2023-04-30T09:51:00.519Z,6.33
2023-04-30T09:53:29.441Z,3.87
2023-04-30T09:56:02.850Z,4.30
2023-04-30T09:58:33.289Z,7.87
2023-04-30T10:01:04.060Z,4.17
2023-04-30T10:03:33.789Z,3.37
2023-04-30T10:06:03.602Z,2.80
2023-04-30T10:08:45.437Z,6.90
2023-04-30T10:11:19.943Z,3.97
2023-04-30T10:14:09.404Z,7.90
2023-04-30T10:17:12.665Z,7.67
2023-04-30T10:19:48.031Z,6.40
2023-04-30T10:22:16.725Z,6.17
2023-04-30T10:24:47.073Z,5.77
2023-04-30T10:27:16.087Z,4.43
2023-04-30T10:29:44.616Z,6.07
2023-04-30T10:32:15.466Z,4.43
2023-04-30T10:35:21.093Z,2.83
2023-04-30T10:37:59.172Z,7.73
2023-04-30T10:40:30.560Z,7.20
2023-04-30T10:43:00.663Z,3.40
2023-04-30T10:45:47.368Z,4.80
2023-04-30T10:48:24.413Z,4.70
2023-04-30T10:50:59.160Z,4.07
2023-04-30T10:53:28.965Z,5.83
2023-04-30T10:56:07.384Z,4.30
2023-04-30T10:58:38.865Z,6.60
2023-04-30T11:01:14.852Z,5.93
2023-04-30T11:04:05.883Z,3.47
2023-04-30T11:06:55.929Z,7.03
2023-04-30T11:09:41.434Z,4.23
2023-04-30T11:12:30.583Z,4.43
2023-04-30T11:15:08.083Z,5.17
2023-04-30T11:17:36.386Z,4.37
2023-04-30T11:20:05.099Z,6.60
2023-04-30T11:22:36.343Z,4.53
2023-04-30T11:25:13.094Z,9.47
2023-04-30T11:27:46.103Z,6.77
2023-04-30T11:30:17.121Z,4.83
2023-04-30T11:32:51.108Z,6.87
2023-04-30T11:35:20.238Z,7.50
2023-04-30T11:37:49.585Z,7.93
2023-04-30T11:40:17.688Z,7.53
2023-04-30T11:42:47.108Z,7.47
2023-04-30T11:45:20.890Z,6.57
2023-04-30T11:47:55.729Z,5.17
2023-04-30T11:50:29.479Z,6.43
2023-04-30T11:53:02.412Z,3.40
2023-04-30T11:55:31.158Z,4.63
2023-04-30T11:58:00.476Z,8.60
2023-04-30T12:00:31.647Z,6.10
2023-04-30T12:03:03.874Z,5.30
2023-04-30T12:05:32.504Z,6.40
2023-04-30T12:08:12.425Z,3.97
2023-04-30T12:10:41.272Z,5.97
2023-04-30T12:13:09.394Z,3.87
2023-04-30T12:15:39.720Z,3.30
2023-04-30T12:18:15.597Z,5.00
2023-04-30T12:20:44.477Z,7.47
2023-04-30T12:23:12.742Z,7.33
2023-04-30T12:25:44.630Z,7.53
2023-04-30T12:28:13.067Z,7.87
2023-04-30T12:30:41.762Z,4.73
2023-04-30T12:33:13.409Z,4.53
2023-04-30T12:35:44.712Z,4.60
2023-04-30T12:38:17.887Z,7.17
2023-04-30T12:40:49.714Z,4.30
2023-04-30T12:43:19.271Z,6.03
2023-04-30T12:45:53.844Z,4.47
2023-04-30T12:48:27.237Z,4.27
2023-04-30T12:50:57.952Z,4.83
2023-04-30T12:53:26.785Z,5.97
2023-04-30T12:56:15.569Z,4.80
2023-04-30T12:58:50.625Z,4.07
2023-04-30T13:01:22.027Z,5.07
2023-04-30T13:03:50.678Z,4.57
2023-04-30T13:06:19.130Z,3.93
2023-04-30T13:08:57.910Z,4.67
2023-04-30T13:11:27.908Z,6.63
2023-04-30T13:13:56.707Z,4.03
2023-04-30T13:16:26.071Z,6.07
2023-04-30T13:18:55.450Z,4.37
2023-04-30T13:21:25.109Z,3.43
2023-04-30T13:23:55.213Z,5.13
2023-04-30T13:26:24.605Z,3.50
2023-04-30T13:28:52.734Z,6.57
2023-04-30T13:31:21.074Z,5.73
2023-04-30T13:33:50.273Z,8.87
2023-04-30T13:36:18.480Z,5.47
2023-04-30T13:38:46.814Z,3.63
2023-04-30T13:41:15.477Z,7.60
2023-04-30T13:43:44.819Z,6.50
2023-04-30T13:46:13.205Z,5.93
2023-04-30T13:48:41.360Z,5.60
2023-04-30T13:51:10.125Z,4.60
2023-04-30T13:53:38.698Z,4.80
2023-04-30T13:56:08.012Z,6.33
2023-04-30T13:58:36.344Z,5.20
2023-04-30T14:01:05.094Z,3.63
2023-04-30T14:03:34.055Z,5.40
2023-04-30T14:06:02.398Z,4.77
2023-04-30T14:08:34.191Z,8.13
2023-04-30T14:11:03.270Z,5.53
2023-04-30T14:13:31.852Z,4.57
2023-04-30T14:16:00.498Z,4.47
2023-04-30T14:18:29.890Z,5.63
2023-04-30T14:20:58.606Z,5.37
2023-04-30T14:23:29.151Z,6.40
2023-04-30T14:25:57.727Z,6.53
2023-04-30T14:28:26.288Z,6.83
2023-04-30T14:30:54.926Z,4.97
2023-04-30T14:33:23.171Z,4.23
2023-04-30T14:35:51.877Z,6.10
2023-04-30T14:38:20.800Z,4.73
2023-04-30T14:40:49.383Z,3.87
2023-04-30T14:43:17.931Z,3.93
2023-04-30T14:45:46.775Z,5.33
2023-04-30T14:48:15.876Z,4.50
2023-04-30T14:50:46.249Z,5.73
2023-04-30T14:53:15.245Z,8.27
2023-04-30T14:55:44.652Z,4.77
2023-04-30T14:58:13.271Z,6.90
2023-04-30T15:00:41.885Z,4.47
2023-04-30T15:03:10.341Z,4.17
2023-04-30T15:05:39.294Z,4.87
2023-04-30T15:08:07.878Z,5.63
2023-04-30T15:10:36.590Z,5.00
2023-04-30T15:13:05.285Z,4.93
2023-04-30T15:15:33.840Z,3.03
2023-04-30T15:18:04.314Z,4.43
2023-04-30T15:20:32.990Z,5.23
2023-04-30T15:23:01.112Z,2.80
2023-04-30T15:25:30.465Z,2.60
2023-04-30T15:27:59.605Z,5.20
2023-04-30T15:30:28.495Z,3.87
2023-04-30T15:32:57.016Z,3.43
2023-04-30T15:35:26.577Z,4.13
2023-04-30T15:37:55.289Z,4.50
2023-04-30T15:40:24.423Z,3.90
2023-04-30T15:42:53.161Z,4.67
2023-04-30T15:45:21.649Z,6.20
2023-04-30T15:47:49.782Z,5.10
2023-04-30T15:50:18.033Z,5.23
2023-04-30T15:52:46.633Z,6.80
2023-04-30T15:55:15.194Z,5.33
2023-04-30T15:57:43.697Z,4.90
2023-04-30T16:00:14.633Z,3.63
2023-04-30T16:02:43.334Z,3.30
2023-04-30T16:05:12.299Z,4.77
2023-04-30T16:07:43.619Z,5.30
2023-04-30T16:10:13.145Z,2.57
2023-04-30T16:12:42.002Z,5.80
2023-04-30T16:15:11.860Z,5.73
2023-04-30T16:17:40.057Z,4.00
2023-04-30T16:20:09.413Z,5.10
2023-04-30T16:22:37.686Z,6.87
2023-04-30T16:25:07.772Z,4.70
2023-04-30T16:27:37.505Z,4.60
2023-04-30T16:30:07.440Z,3.73
2023-04-30T16:32:35.864Z,3.80
2023-04-30T16:35:04.044Z,3.90
2023-04-30T16:37:32.495Z,3.93
2023-04-30T16:40:01.695Z,3.87
2023-04-30T16:42:30.235Z,3.67
2023-04-30T16:44:59.050Z,4.43
2023-04-30T16:47:27.744Z,6.10
2023-04-30T16:49:56.798Z,4.40
2023-04-30T16:52:26.287Z,5.80
2023-04-30T16:54:54.498Z,5.50
2023-04-30T16:57:25.338Z,2.77
2023-04-30T16:59:54.024Z,12.50
2023-04-30T17:02:22.883Z,2.97
2023-04-30T17:04:52.834Z,7.57
2023-04-30T17:07:21.124Z,6.30
2023-04-30T17:09:50.626Z,5.13
2023-04-30T17:12:19.170Z,6.23
2023-04-30T17:14:47.374Z,5.80
2023-04-30T17:17:16.139Z,5.80
2023-04-30T17:19:44.645Z,3.90
2023-04-30T17:22:13.235Z,9.67
2023-04-30T17:24:42.057Z,3.93
2023-04-30T17:27:10.778Z,5.73
2023-04-30T17:29:39.487Z,4.83
2023-04-30T17:32:08.238Z,6.10
2023-04-30T17:34:37.275Z,5.97
2023-04-30T17:37:05.862Z,5.97
2023-04-30T17:39:33.964Z,5.40
2023-04-30T17:42:03.407Z,6.33
2023-04-30T17:44:33.704Z,5.67
2023-04-30T17:47:02.314Z,3.07
2023-04-30T17:49:30.662Z,8.00
2023-04-30T17:52:00.788Z,6.63
2023-04-30T17:54:31.435Z,7.70
2023-04-30T17:57:00.295Z,6.10
2023-04-30T17:59:31.020Z,5.60
2023-04-30T18:01:59.746Z,3.80
2023-04-30T18:04:28.474Z,7.77
2023-04-30T18:06:56.994Z,5.10
2023-04-30T18:09:26.955Z,5.17
2023-04-30T18:11:56.374Z,6.37
2023-04-30T18:14:26.153Z,4.93
2023-04-30T18:16:54.865Z,4.57
2023-04-30T18:19:23.683Z,4.77
2023-04-30T18:21:53.179Z,8.97
2023-04-30T18:24:27.407Z,9.23
2023-04-30T18:26:56.920Z,5.73
2023-04-30T18:29:25.455Z,7.03
2023-04-30T18:31:53.608Z,6.67
2023-04-30T18:34:22.500Z,7.60
2023-04-30T18:36:51.641Z,5.37
2023-04-30T18:39:20.267Z,5.33
2023-04-30T18:41:49.224Z,4.97
2023-04-30T18:44:17.840Z,6.10
2023-04-30T18:46:46.077Z,8.93
2023-04-30T18:49:15.839Z,11.00
2023-04-30T18:51:44.321Z,11.77
2023-04-30T18:54:12.620Z,9.87
2023-04-30T18:56:41.582Z,9.37
2023-04-30T18:59:10.406Z,9.40
2023-04-30T19:01:38.569Z,8.23
2023-04-30T19:04:09.346Z,8.27
2023-04-30T19:06:37.867Z,6.93
2023-04-30T19:09:06.413Z,8.53
2023-04-30T19:11:35.819Z,8.57
2023-04-30T19:14:03.949Z,10.03
2023-04-30T19:16:32.143Z,7.40
2023-04-30T19:19:00.731Z,8.03
2023-04-30T19:21:30.700Z,8.13
2023-04-30T19:23:59.455Z,10.00
2023-04-30T19:26:28.098Z,9.07
2023-04-30T19:28:56.727Z,8.57
2023-04-30T19:31:25.353Z,9.43
2023-04-30T19:33:53.974Z,9.00
2023-04-30T19:36:22.313Z,8.10
2023-04-30T19:38:54.357Z,10.40
2023-04-30T19:41:22.764Z,8.30
2023-04-30T19:43:52.524Z,12.37
2023-04-30T19:46:21.009Z,14.67
2023-04-30T19:48:50.375Z,8.93
2023-04-30T19:51:18.922Z,9.67
2023-04-30T19:53:47.305Z,12.03
2023-04-30T19:56:15.782Z,9.33
2023-04-30T19:58:47.402Z,9.47
2023-04-30T20:01:16.156Z,8.63
2023-04-30T20:03:44.866Z,7.43
2023-04-30T20:06:13.535Z,8.53
2023-04-30T20:08:42.120Z,6.63
2023-04-30T20:11:10.665Z,5.57
2023-04-30T20:13:39.199Z,8.77
2023-04-30T20:16:11.325Z,7.17
2023-04-30T20:18:40.116Z,6.50
2023-04-30T20:21:08.709Z,7.07
2023-04-30T20:23:39.386Z,6.93
2023-04-30T20:26:08.593Z,7.27
2023-04-30T20:28:36.917Z,10.07
2023-04-30T20:31:06.916Z,5.47
2023-04-30T20:33:35.465Z,8.57
2023-04-30T20:36:04.038Z,8.00
2023-04-30T20:38:32.469Z,9.87
2023-04-30T20:41:00.759Z,8.97
2023-04-30T20:43:29.477Z,8.83
2023-04-30T20:45:59.217Z,14.77
2023-04-30T20:48:28.267Z,11.43
2023-04-30T20:50:56.963Z,10.57
2023-04-30T20:53:25.577Z,9.13
2023-04-30T20:55:59.753Z,11.30
2023-04-30T20:58:28.811Z,9.07
2023-04-30T21:00:57.860Z,11.23
2023-04-30T21:03:27.111Z,9.90
2023-04-30T21:05:55.778Z,12.77
2023-04-30T21:08:24.280Z,15.57
2023-04-30T21:10:52.510Z,25.93
2023-04-30T21:13:21.000Z,29.23
2023-04-30T21:15:49.487Z,27.57
2023-04-30T21:18:17.841Z,29.70
2023-04-30T21:20:46.118Z,20.73
2023-04-30T21:23:14.685Z,21.47
2023-04-30T21:25:43.226Z,22.07
2023-04-30T21:28:11.785Z,23.10
2023-04-30T21:30:40.168Z,21.27
2023-04-30T21:33:08.801Z,16.67
2023-04-30T21:35:37.398Z,17.50
2023-04-30T21:38:06.028Z,17.37
2023-04-30T21:40:35.134Z,16.33
2023-04-30T21:43:03.875Z,17.97
2023-04-30T21:45:35.145Z,16.63
2023-04-30T21:48:03.705Z,18.10
2023-04-30T21:50:34.347Z,17.50
2023-04-30T21:53:03.878Z,21.50
2023-04-30T21:55:32.518Z,18.83
2023-04-30T21:58:01.280Z,18.23
2023-04-30T22:00:30.079Z,17.00
2023-04-30T22:02:58.683Z,17.13
2023-04-30T22:05:27.453Z,18.73
2023-04-30T22:07:56.042Z,17.97
2023-04-30T22:10:24.798Z,15.00
2023-04-30T22:12:53.305Z,22.27
2023-04-30T22:15:21.819Z,18.27
2023-04-30T22:17:50.879Z,16.83
2023-04-30T22:20:19.454Z,16.70
2023-04-30T22:22:47.986Z,16.40
2023-04-30T22:25:17.692Z,17.40
2023-04-30T22:27:47.329Z,18.37
2023-04-30T22:30:16.134Z,15.80
2023-04-30T22:32:44.641Z,15.40
2023-04-30T22:35:13.631Z,16.93
2023-04-30T22:37:42.244Z,17.03
2023-04-30T22:40:11.218Z,18.00
2023-04-30T22:42:40.218Z,18.80
2023-04-30T22:45:10.457Z,12.30
2023-04-30T22:47:39.372Z,16.27
2023-04-30T22:50:08.962Z,11.93
2023-04-30T22:52:37.509Z,13.93
2023-04-30T22:55:06.685Z,13.33
2023-04-30T22:57:37.720Z,12.93
2023-04-30T23:00:08.145Z,11.27
2023-04-30T23:02:36.930Z,11.27
2023-04-30T23:05:05.908Z,11.80
2023-04-30T23:07:34.397Z,12.97
2023-04-30T23:10:05.202Z,13.07
2023-04-30T23:12:35.138Z,9.57
2023-04-30T23:15:04.006Z,11.93
2023-04-30T23:17:32.902Z,12.90
2023-04-30T23:20:01.367Z,9.70
2023-04-30T23:22:29.997Z,10.17
2023-04-30T23:24:58.505Z,11.63
2023-04-30T23:27:28.359Z,10.70
2023-04-30T23:29:57.633Z,11.27
2023-04-30T23:32:26.535Z,10.63
2023-04-30T23:34:55.843Z,12.67
2023-04-30T23:37:24.389Z,14.70
2023-04-30T23:39:54.312Z,13.20
2023-04-30T23:42:23.068Z,11.40
2023-04-30T23:44:51.626Z,12.13
2023-04-30T23:47:20.132Z,12.40
2023-04-30T23:49:48.544Z,11.67
2023-04-30T23:52:17.066Z,12.63
2023-04-30T23:54:45.784Z,12.23
2023-04-30T23:57:14.033Z,9.60
2023-04-30T23:59:42.703Z,13.37
